Woodsboro, Texas
Current Conditions -  °F | °C
As of 2:53 AM on Thursday 23 Oct 2014 (Local Time) from KRKP Reporting Station
Clear Clear  
Wind Chill: 73°   Ceiling: Unl
Heat Index: 73°   Visibility: 10mi
Dew Point: 63°   Wind: 10mph
Humidity: 71%   Direction: 80°E
Pressure: 30.03"   Gusts: NA
Location:  28.24°N, 97.32°W
Report Text: KRKP 230753Z AUTO 08009KT 10SM CLR 23/17 A3003 RMK AO2 SLP172 T02280172 $
Loading
Personal Weather Stations






























Interactive Weather Map
Tropical Storm Tracking
New forecast layout! Learn more

10-Day Weather Forecast

Advertisements
Track Severe Weather on mobile